Time;durP1;ratioP1;P1;durP2;ratioP2;P2;SDS_P1;SDS_P2;PMS_P1;PMS_P2;Temp;Humidity;BMP_temperature;BMP_pressure;BME280_temperature;BME280_humidity;BME280_pressure;Samples;Min_cycle;Max_cycle;Signal;HPM_P1;HPM_P2
2023/07/01 00:01:55;;;;;;;10.10;6.00;;;;;;;19.12;69.93;98339.78;79645;1292;3011641;-62
2023/07/01 00:04:23;;;;;;;11.20;5.90;;;;;;;19.27;69.19;98346.02;78437;1291;3051105;-65
2023/07/01 00:06:50;;;;;;;11.70;6.30;;;;;;;19.35;68.93;98344.31;79621;1294;3013369;-64
2023/07/01 00:09:16;;;;;;;10.90;7.00;;;;;;;19.18;69.67;98346.38;79696;1292;3013205;-64
2023/07/01 00:11:45;;;;;;;15.00;8.40;;;;;;;19.04;70.02;98344.05;78493;1294;3028829;-64
2023/07/01 00:14:11;;;;;;;16.50;9.00;;;;;;;18.96;70.09;98344.99;79644;1292;3013110;-64
2023/07/01 00:16:39;;;;;;;18.20;9.70;;;;;;;18.79;70.81;98345.75;79784;1292;3011564;-62
2023/07/01 00:19:08;;;;;;;23.40;10.40;;;;;;;18.68;71.44;98348.05;78485;1294;3052227;-61
2023/07/01 00:21:35;;;;;;;18.10;11.20;;;;;;;18.64;71.07;98343.63;79699;1294;3013067;-63
2023/07/01 00:24:02;;;;;;;21.70;13.90;;;;;;;18.47;72.10;98345.23;79698;1291;3011580;-62
2023/07/01 00:26:30;;;;;;;19.10;10.50;;;;;;;18.25;73.02;98354.41;78424;1294;3025708;-63
2023/07/01 00:28:56;;;;;;;23.30;10.00;;;;;;;18.67;72.14;98353.97;79662;1292;3013423;-63
2023/07/01 00:31:23;;;;;;;18.00;9.90;;;;;;;19.10;70.43;98349.98;79603;1291;3011737;-63
2023/07/01 00:33:51;;;;;;;20.10;10.30;;;;;;;19.20;69.69;98346.16;78460;1294;3026337;-63
2023/07/01 00:36:18;;;;;;;19.40;11.10;;;;;;;19.19;69.49;98346.47;79711;1294;3013437;-63
2023/07/01 00:38:44;;;;;;;19.40;11.60;;;;;;;18.92;70.23;98354.28;79654;1292;3011510;-62
2023/07/01 00:41:12;;;;;;;19.50;12.40;;;;;;;18.70;71.23;98353.03;78490;1292;3026501;-62
2023/07/01 00:43:40;;;;;;;22.90;12.50;;;;;;;18.55;72.03;98355.42;79664;1291;3013140;-62
2023/07/01 00:46:07;;;;;;;24.50;13.50;;;;;;;18.47;72.31;98355.01;79643;1292;3012082;-63
2023/07/01 00:48:36;;;;;;;30.20;15.20;;;;;;;18.34;72.88;98347.98;78403;1295;3051577;-62
2023/07/01 00:51:02;;;;;;;23.30;9.90;;;;;;;18.21;73.75;98354.85;79649;1294;3020613;-63
2023/07/01 00:53:29;;;;;;;15.50;9.20;;;;;;;18.65;72.26;98353.35;79577;1291;3013477;-64
2023/07/01 00:55:57;;;;;;;19.40;10.40;;;;;;;19.03;70.60;98357.17;78429;1291;3026559;-62
2023/07/01 00:58:23;;;;;;;17.10;10.50;;;;;;;19.03;70.09;98353.77;79665;1292;3020435;-64
2023/07/01 01:00:50;;;;;;;20.20;11.60;;;;;;;18.97;70.49;98351.98;79691;1292;3011920;-65
2023/07/01 01:03:25;;;;;;;16.20;11.00;;;;;;;18.84;70.72;98349.45;78392;1295;3026787;-62
2023/07/01 01:06:20;;;;;;;19.50;10.90;;;;;;;18.78;70.89;98350.27;78419;1294;3053529;-61
2023/07/01 01:08:59;;;;;;;19.00;11.00;;;;;;;18.58;71.80;98344.44;78459;1292;3069122;-64
2023/07/01 01:11:29;;;;;;;25.30;13.10;;;;;;;18.42;72.51;98347.21;78428;1294;3053514;-65
2023/07/01 01:13:59;;;;;;;;;;;;;;;18.26;73.08;98352.77;79627;1292;3011784;-63
2023/07/01 01:16:27;;;;;;;24.40;13.80;;;;;;;18.16;72.71;98351.87;78485;1294;3048855;-61
2023/07/01 01:18:54;;;;;;;17.70;10.50;;;;;;;18.05;73.84;98352.17;79583;1292;3013086;-64
2023/07/01 01:21:21;;;;;;;16.30;9.50;;;;;;;18.61;72.19;98363.24;79702;1292;3012929;-62
2023/07/01 01:24:05;;;;;;;25.90;11.40;;;;;;;18.99;70.41;98366.10;78477;1294;3028070;-63
2023/07/01 01:26:38;;;;;;;23.60;12.40;;;;;;;18.83;70.27;98372.69;78470;1294;3069154;-65
2023/07/01 01:29:06;;;;;;;18.80;10.50;;;;;;;18.66;70.47;98379.45;79682;1294;3011530;-63
2023/07/01 01:31:34;;;;;;;23.60;10.00;;;;;;;18.39;70.66;98380.73;78362;1297;3056536;-61
2023/07/01 01:34:01;;;;;;;17.60;9.90;;;;;;;18.06;71.35;98382.51;79762;1291;3013811;-66
2023/07/01 01:36:37;;;;;;;15.80;8.00;;;;;;;17.74;72.74;98389.35;79162;1294;3011687;-62
2023/07/01 01:39:05;;;;;;;13.90;7.70;;;;;;;17.47;74.08;98387.08;79636;1291;3013154;-65
2023/07/01 01:41:47;;;;;;;10.50;5.90;;;;;;;17.16;75.57;98386.48;78451;1294;3051845;-61
2023/07/01 01:44:19;;;;;;;8.60;5.30;;;;;;;17.94;74.34;98388.95;78465;1295;3053572;-64
2023/07/01 01:46:46;;;;;;;16.40;6.30;;;;;;;18.22;72.47;98392.66;79779;1291;3011651;-63
2023/07/01 01:49:14;;;;;;;10.50;5.80;;;;;;;18.08;72.18;98391.70;78387;1297;3029567;-62
2023/07/01 01:51:41;;;;;;;8.40;5.10;;;;;;;17.81;72.76;98394.05;79584;1292;3020687;-64
2023/07/01 01:54:09;;;;;;;14.80;6.10;;;;;;;17.59;73.28;98398.21;79540;1296;3011916;-61
2023/07/01 01:56:37;;;;;;;11.60;5.70;;;;;;;17.28;74.61;98403.42;78401;1297;3049865;-63
2023/07/01 01:59:03;;;;;;;7.90;5.30;;;;;;;17.09;75.21;98401.85;79687;1295;3013817;-63
2023/07/01 02:01:30;;;;;;;8.40;4.60;;;;;;;16.85;76.79;98398.67;79582;1292;3012204;-61
2023/07/01 02:03:58;;;;;;;7.80;4.80;;;;;;;17.56;74.78;98397.27;78355;1295;3026276;-63
2023/07/01 02:06:24;;;;;;;11.50;5.00;;;;;;;17.88;73.40;98398.65;79657;1291;3013730;-62
2023/07/01 02:08:51;;;;;;;8.80;5.10;;;;;;;17.76;73.12;98404.17;79585;1292;3011528;-64
2023/07/01 02:11:20;;;;;;;8.10;5.00;;;;;;;17.40;74.16;98408.36;78504;1295;3050080;-63
2023/07/01 02:13:47;;;;;;;11.50;5.60;;;;;;;17.05;75.29;98401.17;79661;1295;3013487;-63
2023/07/01 02:16:13;;;;;;;8.70;5.30;;;;;;;16.96;75.61;98402.70;79626;1291;3013457;-63
2023/07/01 02:18:43;;;;;;;13.70;5.40;;;;;;;16.97;75.57;98402.23;78497;1292;3051424;-62
2023/07/01 02:21:09;;;;;;;8.00;4.70;;;;;;;17.30;75.12;98402.98;79564;1292;3020452;-62
2023/07/01 02:23:36;;;;;;;8.60;5.00;;;;;;;17.55;74.38;98408.33;79617;1295;3011812;-62
2023/07/01 02:26:04;;;;;;;8.70;4.80;;;;;;;17.51;73.99;98409.85;78401;1292;3029098;-62
2023/07/01 02:28:30;;;;;;;7.50;5.50;;;;;;;17.21;74.64;98409.64;79704;1292;3012897;-63
2023/07/01 02:30:57;;;;;;;7.30;5.40;;;;;;;17.07;75.14;98409.14;79611;1291;3011447;-62
2023/07/01 02:33:25;;;;;;;8.70;5.50;;;;;;;16.97;75.36;98414.96;78333;1291;3027280;-61
2023/07/01 02:35:52;;;;;;;9.40;4.90;;;;;;;16.93;76.01;98412.16;79602;1291;3018800;-64
2023/07/01 02:38:18;;;;;;;9.20;5.80;;;;;;;17.33;75.21;98416.81;79583;1292;3011390;-64
2023/07/01 02:40:46;;;;;;;8.60;5.30;;;;;;;17.36;74.94;98413.21;78395;1295;3028863;-64
2023/07/01 02:43:13;;;;;;;8.50;5.30;;;;;;;17.30;75.14;98410.04;79607;1294;3013428;-62
2023/07/01 02:45:40;;;;;;;11.30;7.60;;;;;;;17.17;75.43;98407.21;79665;1295;3011515;-62
2023/07/01 02:48:08;;;;;;;13.30;7.10;;;;;;;17.01;76.20;98416.84;78459;1295;3029923;-64
2023/07/01 02:50:35;;;;;;;11.30;8.40;;;;;;;17.01;75.72;98414.03;79585;1292;3014943;-62
2023/07/01 02:53:02;;;;;;;13.40;7.80;;;;;;;16.96;76.23;98421.42;79617;1291;3011452;-62
2023/07/01 02:55:31;;;;;;;10.60;6.80;;;;;;;17.33;75.73;98423.18;78409;1298;3051341;-63
2023/07/01 02:57:57;;;;;;;11.40;7.10;;;;;;;17.45;75.15;98416.81;79639;1296;3013630;-62
2023/07/01 03:00:24;;;;;;;13.30;7.90;;;;;;;17.55;74.66;98410.81;79644;1292;3011787;-61
2023/07/01 03:02:52;;;;;;;15.90;9.80;;;;;;;17.46;74.71;98412.66;78488;1291;3028497;-63
2023/07/01 03:05:23;;;;;;;17.40;9.70;;;;;;;17.29;75.71;98419.95;79717;1292;3013548;-62
2023/07/01 03:07:51;;;;;;;12.60;9.20;;;;;;;17.20;75.86;98420.10;78471;1292;3052682;-63
2023/07/01 03:10:18;;;;;;;18.10;9.80;;;;;;;17.12;76.32;98423.62;79657;1294;3013700;-63
2023/07/01 03:12:49;;;;;;;8.70;6.70;;;;;;;17.14;76.97;98423.99;79167;1291;3011560;-63
2023/07/01 03:15:16;;;;;;;12.90;7.90;;;;;;;17.81;75.39;98431.96;79775;1295;3013710;-61
2023/07/01 03:17:43;;;;;;;15.60;8.70;;;;;;;17.95;74.03;98437.05;79644;1291;3011952;-63
2023/07/01 03:20:22;;;;;;;17.60;9.10;;;;;;;18.09;74.09;98433.96;78365;1297;3026936;-63
2023/07/01 03:22:54;;;;;;;18.10;10.30;;;;;;;18.04;73.86;98430.41;78543;1291;3048553;-62
2023/07/01 03:25:21;;;;;;;16.40;11.10;;;;;;;17.91;74.33;98436.59;79676;1294;3012265;-61
2023/07/01 03:27:48;;;;;;;23.10;11.30;;;;;;;17.86;74.92;98428.83;79645;1291;3011375;-64
2023/07/01 03:30:17;;;;;;;15.30;11.30;;;;;;;17.73;75.58;98430.14;78413;1294;3052513;-63
2023/07/01 03:32:46;;;;;;;12.00;8.70;;;;;;;17.83;74.84;98435.48;79620;1293;3011656;-61
2023/07/01 03:35:15;;;;;;;16.20;9.10;;;;;;;18.18;75.25;98429.23;78469;1295;3028054;-61
2023/07/01 03:37:43;;;;;;;17.90;10.10;;;;;;;18.50;73.27;98423.69;79654;1292;3013220;-64
2023/07/01 03:40:10;;;;;;;14.20;9.20;;;;;;;18.58;73.14;98427.42;79686;1292;3011719;-63
2023/07/01 03:42:38;;;;;;;20.00;9.70;;;;;;;18.43;74.19;98435.60;78504;1295;3049687;-61
2023/07/01 03:45:08;;;;;;;15.80;8.80;;;;;;;18.45;74.21;98437.13;79769;1292;3013691;-63
2023/07/01 03:47:44;;;;;;;19.10;9.10;;;;;;;18.49;74.34;98434.92;78576;1292;3068490;-62
2023/07/01 03:50:13;;;;;;;16.50;9.00;;;;;;;18.52;74.27;98441.33;78481;1292;3051731;-62
2023/07/01 03:52:39;;;;;;;12.20;7.30;;;;;;;18.51;74.87;98445.52;79701;1291;3014434;-63
2023/07/01 03:55:08;;;;;;;11.20;6.90;;;;;;;19.03;73.12;98439.61;79702;1292;3012254;-64
2023/07/01 03:57:36;;;;;;;13.50;7.30;;;;;;;19.36;71.71;98438.89;78541;1291;3050124;-61
2023/07/01 04:00:18;;;;;;;12.00;8.10;;;;;;;19.52;71.15;98438.01;79762;1294;3019060;-64
2023/07/01 04:02:48;;;;;;;16.10;7.80;;;;;;;19.38;71.66;98441.75;78400;1295;3069053;-62
2023/07/01 04:05:15;;;;;;;14.70;7.80;;;;;;;19.23;72.00;98448.15;79672;1291;3015923;-61
2023/07/01 04:07:44;;;;;;;13.00;7.00;;;;;;;19.18;72.45;98445.12;79679;1291;3013649;-62
2023/07/01 04:10:12;;;;;;;14.30;7.70;;;;;;;19.11;72.63;98445.17;78545;1292;3053547;-61
2023/07/01 04:12:39;;;;;;;12.20;7.30;;;;;;;19.04;73.23;98444.55;79604;1292;3012951;-63
2023/07/01 04:15:09;;;;;;;13.50;5.70;;;;;;;19.03;73.61;98444.84;79781;1295;3011907;-63
2023/07/01 04:17:39;;;;;;;13.10;5.70;;;;;;;19.74;71.32;98438.58;78379;1294;3068689;-63
2023/07/01 04:20:07;;;;;;;13.50;6.40;;;;;;;20.04;69.44;98446.43;79703;1291;3013638;-64
2023/07/01 04:22:33;;;;;;;11.30;6.40;;;;;;;20.17;69.28;98450.13;79765;1291;3013605;-64
2023/07/01 04:25:02;;;;;;;15.40;6.80;;;;;;;20.02;69.25;98451.23;78373;1295;3052503;-62
2023/07/01 04:27:29;;;;;;;12.20;7.00;;;;;;;19.92;69.74;98452.63;79701;1295;3015440;-63
2023/07/01 04:29:56;;;;;;;11.70;7.50;;;;;;;19.84;70.14;98457.11;79642;1292;3012132;-64
2023/07/01 04:32:24;;;;;;;11.90;7.10;;;;;;;19.74;70.32;98454.04;78414;1292;3069339;-65
2023/07/01 04:34:51;;;;;;;14.20;6.90;;;;;;;19.64;71.09;98452.29;79690;1292;3013015;-63
2023/07/01 04:37:17;;;;;;;13.20;7.80;;;;;;;19.66;70.78;98454.22;79590;1291;3011847;-64
2023/07/01 04:39:45;;;;;;;12.20;7.60;;;;;;;19.55;71.37;98453.67;78417;1292;3025896;-60
2023/07/01 04:42:12;;;;;;;13.50;6.50;;;;;;;19.63;71.49;98457.35;79700;1292;3013471;-63
2023/07/01 04:44:38;;;;;;;14.70;6.40;;;;;;;20.22;69.86;98459.48;79638;1292;3011524;-63
2023/07/01 04:47:06;;;;;;;10.80;5.60;;;;;;;20.55;67.78;98459.02;78418;1292;3028799;-64
2023/07/01 04:49:33;;;;;;;9.30;6.10;;;;;;;20.51;67.15;98467.70;79779;1291;3013579;-65
2023/07/01 04:51:59;;;;;;;8.30;6.40;;;;;;;20.36;67.67;98465.73;79789;1292;3011522;-66
2023/07/01 04:54:27;;;;;;;8.70;5.90;;;;;;;20.25;68.47;98467.83;78417;1292;3029086;-63
2023/07/01 04:56:54;;;;;;;15.80;6.20;;;;;;;20.10;69.15;98465.68;79677;1292;3013285;-63
2023/07/01 04:59:20;;;;;;;8.80;5.60;;;;;;;20.22;68.75;98463.42;79620;1295;3011627;-65
2023/07/01 05:01:48;;;;;;;8.30;5.30;;;;;;;20.27;68.86;98467.77;78534;1292;3028179;-64
2023/07/01 05:04:15;;;;;;;12.30;4.80;;;;;;;20.18;68.45;98473.63;79624;1292;3013439;-66
2023/07/01 05:06:42;;;;;;;9.30;5.00;;;;;;;20.01;68.11;98468.48;79682;1295;3011636;-66
2023/07/01 05:09:10;;;;;;;6.80;4.80;;;;;;;20.04;68.45;98472.77;78523;1294;3026867;-63
2023/07/01 05:11:37;;;;;;;5.80;5.10;;;;;;;19.98;68.60;98472.98;79625;1294;3013501;-63
2023/07/01 05:14:04;;;;;;;13.50;4.70;;;;;;;19.97;69.01;98471.86;79726;1292;3012554;-65
2023/07/01 05:16:32;;;;;;;8.90;4.70;;;;;;;20.04;68.82;98480.48;78380;1292;3068267;-63
2023/07/01 05:18:59;;;;;;;6.20;4.50;;;;;;;20.10;68.35;98478.20;79724;1292;3012981;-64
2023/07/01 05:21:27;;;;;;;6.10;4.80;;;;;;;20.17;68.09;98478.39;79631;1294;3011532;-62
2023/07/01 05:23:55;;;;;;;5.60;4.00;;;;;;;20.23;68.55;98479.12;78608;1295;3054287;-64
2023/07/01 05:26:22;;;;;;;12.90;4.50;;;;;;;20.31;67.88;98482.69;79608;1295;3013706;-64
2023/07/01 05:28:48;;;;;;;7.70;5.00;;;;;;;20.26;66.86;98483.76;79666;1292;3013618;-64
2023/07/01 05:31:16;;;;;;;7.80;4.90;;;;;;;20.20;66.94;98489.36;78462;1295;3028538;-62
2023/07/01 05:33:44;;;;;;;5.40;4.30;;;;;;;20.24;67.25;98483.08;79688;1295;3012911;-64
2023/07/01 05:36:11;;;;;;;12.70;5.00;;;;;;;20.40;66.99;98485.84;79607;1291;3011663;-63
2023/07/01 05:38:39;;;;;;;6.60;5.10;;;;;;;20.42;66.79;98492.36;78462;1292;3053958;-63
2023/07/01 05:41:06;;;;;;;10.10;5.50;;;;;;;20.50;66.65;98490.39;79726;1295;3012787;-62
2023/07/01 05:43:33;;;;;;;9.90;5.30;;;;;;;20.53;66.36;98493.30;79714;1295;3011550;-64
2023/07/01 05:46:01;;;;;;;11.50;6.10;;;;;;;20.59;65.17;98496.65;78363;1298;3028099;-62
2023/07/01 05:48:28;;;;;;;7.50;4.70;;;;;;;20.58;65.73;98499.95;79714;1295;3012899;-63
2023/07/01 05:50:55;;;;;;;9.80;4.60;;;;;;;20.61;65.81;98502.99;79634;1292;3012140;-64
2023/07/01 05:53:23;;;;;;;6.10;4.00;;;;;;;20.72;65.83;98494.20;78390;1295;3028660;-63
2023/07/01 05:55:50;;;;;;;11.90;4.80;;;;;;;20.84;65.60;98495.70;79624;1292;3013358;-64
2023/07/01 05:58:16;;;;;;;7.70;5.40;;;;;;;20.94;64.79;98500.02;79625;1292;3011443;-61
2023/07/01 06:00:44;;;;;;;12.10;5.00;;;;;;;20.89;63.49;98501.12;78366;1291;3028769;-63
2023/07/01 06:03:12;;;;;;;11.20;5.20;;;;;;;20.87;63.77;98499.89;79700;1292;3013269;-63
2023/07/01 06:05:38;;;;;;;11.90;5.20;;;;;;;20.81;64.00;98508.71;79644;1292;3011554;-63
2023/07/01 06:08:06;;;;;;;7.70;5.30;;;;;;;20.91;63.18;98505.19;78469;1295;3053516;-65
2023/07/01 06:10:34;;;;;;;13.10;6.40;;;;;;;21.04;63.43;98503.42;79833;1295;3015670;-63
2023/07/01 06:13:00;;;;;;;14.00;8.30;;;;;;;21.20;63.32;98504.73;79639;1292;3011902;-63
2023/07/01 06:15:28;;;;;;;13.20;8.70;;;;;;;21.26;62.95;98509.38;78424;1295;3067289;-65
2023/07/01 06:17:55;;;;;;;13.50;8.60;;;;;;;21.24;62.37;98514.95;79599;1291;3013040;-65
2023/07/01 06:20:22;;;;;;;9.90;6.60;;;;;;;21.29;61.43;98508.80;79835;1291;3013458;-63
2023/07/01 06:22:50;;;;;;;11.70;7.00;;;;;;;21.35;61.63;98516.86;78423;1292;3028879;-64
2023/07/01 06:25:16;;;;;;;14.60;7.20;;;;;;;21.34;61.08;98515.89;79732;1292;3013024;-62
2023/07/01 06:27:43;;;;;;;11.50;7.20;;;;;;;21.30;61.18;98514.55;79673;1295;3011899;-65
2023/07/01 06:30:11;;;;;;;12.90;6.60;;;;;;;21.50;60.93;98513.23;78557;1292;3028430;-62
2023/07/01 06:32:38;;;;;;;9.80;6.50;;;;;;;21.68;60.39;98522.70;79734;1291;3014606;-63
2023/07/01 06:35:05;;;;;;;9.50;6.90;;;;;;;21.82;60.51;98524.60;79733;1291;3013243;-64
2023/07/01 06:37:33;;;;;;;10.10;6.30;;;;;;;21.72;59.72;98526.49;78552;1292;3052946;-64
2023/07/01 06:40:00;;;;;;;8.20;5.40;;;;;;;21.68;59.98;98530.21;79728;1295;3013141;-64
2023/07/01 06:42:26;;;;;;;5.30;3.80;;;;;;;21.64;59.13;98535.98;79745;1292;3011526;-64
2023/07/01 06:44:54;;;;;;;5.10;4.00;;;;;;;21.70;59.08;98536.01;78450;1293;3027224;-66
2023/07/01 06:47:21;;;;;;;5.50;4.00;;;;;;;21.72;58.97;98546.20;79680;1292;3012069;-66
2023/07/01 06:49:48;;;;;;;5.20;4.20;;;;;;;21.74;58.54;98541.23;79887;1291;3011636;-64
2023/07/01 06:52:16;;;;;;;6.10;4.20;;;;;;;21.69;58.61;98546.61;78376;1292;3052742;-62
2023/07/01 06:54:43;;;;;;;7.60;5.00;;;;;;;21.60;58.78;98551.36;79751;1295;3014838;-63
2023/07/01 06:57:10;;;;;;;7.60;5.20;;;;;;;21.70;58.84;98549.54;79674;1294;3011712;-64
2023/07/01 06:59:38;;;;;;;8.10;4.90;;;;;;;21.97;58.63;98544.42;78392;1295;3068318;-63
2023/07/01 07:02:05;;;;;;;7.60;4.00;;;;;;;22.09;57.67;98549.89;79740;1292;3018960;-62
2023/07/01 07:04:32;;;;;;;5.00;3.80;;;;;;;22.13;57.20;98552.65;79637;1292;3012045;-63
2023/07/01 07:06:59;;;;;;;5.70;3.70;;;;;;;22.19;56.70;98567.40;78451;1295;3026362;-63
2023/07/01 07:09:26;;;;;;;6.90;3.70;;;;;;;22.18;56.57;98558.45;79632;1292;3013343;-63
2023/07/01 07:11:54;;;;;;;6.70;3.80;;;;;;;22.21;56.84;98555.95;79698;1295;3012008;-63
2023/07/01 07:14:23;;;;;;;8.50;4.10;;;;;;;22.32;56.66;98549.40;78484;1295;3069408;-64
2023/07/01 07:16:50;;;;;;;12.50;5.00;;;;;;;22.34;56.97;98554.02;79745;1292;3012649;-63
2023/07/01 07:19:17;;;;;;;7.00;4.70;;;;;;;22.32;57.29;98554.95;79603;1292;3013282;-65
2023/07/01 07:21:45;;;;;;;6.90;4.70;;;;;;;22.38;57.37;98557.44;78574;1292;3053775;-62
2023/07/01 07:24:12;;;;;;;8.70;3.90;;;;;;;22.43;55.73;98563.61;79653;1294;3013066;-64
2023/07/01 07:26:42;;;;;;;5.30;3.30;;;;;;;22.39;54.87;98569.64;79778;1295;3012953;-65
2023/07/01 07:29:10;;;;;;;5.40;3.20;;;;;;;22.43;55.01;98569.30;78491;1291;3069764;-62
2023/07/01 07:31:38;;;;;;;5.90;3.80;;;;;;;22.46;54.08;98571.73;79722;1292;3014129;-65
2023/07/01 07:34:04;;;;;;;4.10;3.30;;;;;;;22.57;53.76;98579.15;79612;1292;3012021;-65
2023/07/01 07:36:32;;;;;;;6.90;3.50;;;;;;;22.57;52.84;98584.88;78494;1295;3052963;-64
2023/07/01 07:38:59;;;;;;;6.10;3.00;;;;;;;22.58;53.23;98574.52;79805;1295;3013701;-65
2023/07/01 07:41:26;;;;;;;5.40;3.60;;;;;;;22.71;53.81;98575.41;79673;1292;3011716;-64
2023/07/01 07:43:54;;;;;;;6.00;3.50;;;;;;;22.89;54.01;98575.38;78528;1294;3028568;-64
2023/07/01 07:46:20;;;;;;;6.80;3.40;;;;;;;23.00;53.87;98577.06;79704;1292;3013520;-63
2023/07/01 07:48:47;;;;;;;7.50;4.00;;;;;;;22.81;54.04;98582.52;79657;1295;3011561;-64
2023/07/01 07:51:15;;;;;;;6.60;3.30;;;;;;;22.73;54.37;98578.35;78361;1295;3028929;-63
2023/07/01 07:53:42;;;;;;;5.50;3.20;;;;;;;22.84;53.98;98578.84;79633;1295;3012821;-65
2023/07/01 07:56:08;;;;;;;8.00;4.00;;;;;;;22.96;53.75;98575.02;79636;1295;3011656;-65
2023/07/01 07:58:37;;;;;;;4.80;3.10;;;;;;;23.03;53.70;98578.07;78490;1295;3070127;-62
2023/07/01 08:01:04;;;;;;;4.60;3.30;;;;;;;22.97;52.29;98583.77;79818;1295;3013499;-63
2023/07/01 08:03:30;;;;;;;6.90;4.00;;;;;;;22.93;52.51;98579.24;79599;1295;3011649;-64
2023/07/01 08:05:58;;;;;;;8.60;3.90;;;;;;;23.05;51.98;98580.48;78435;1292;3027420;-64
2023/07/01 08:08:25;;;;;;;5.20;3.10;;;;;;;23.18;51.70;98579.94;79699;1295;3013689;-62
2023/07/01 08:10:53;;;;;;;4.20;2.80;;;;;;;23.35;51.36;98571.83;79603;1295;3011777;-65
2023/07/01 08:13:20;;;;;;;6.70;3.00;;;;;;;23.45;51.23;98582.05;78460;1295;3069760;-64
2023/07/01 08:15:47;;;;;;;4.70;2.70;;;;;;;23.53;51.10;98577.45;79635;1295;3018448;-64
2023/07/01 08:18:14;;;;;;;7.10;2.90;;;;;;;23.76;50.83;98577.31;79635;1295;3011782;-62
2023/07/01 08:20:45;;;;;;;7.20;2.80;;;;;;;23.78;50.07;98582.42;78393;1295;3028296;-63
2023/07/01 08:23:13;;;;;;;3.10;2.60;;;;;;;23.64;49.57;98577.23;79655;1294;3014035;-64
2023/07/01 08:25:42;;;;;;;6.10;3.80;;;;;;;23.57;50.04;98580.15;78539;1295;3053320;-63
2023/07/01 08:28:08;;;;;;;6.40;3.20;;;;;;;23.69;50.11;98580.41;79631;1292;3013006;-63
2023/07/01 08:30:35;;;;;;;3.40;2.90;;;;;;;23.79;49.49;98579.02;79668;1294;3012923;-62
2023/07/01 08:33:04;;;;;;;7.00;3.30;;;;;;;23.80;47.87;98578.73;78419;1294;3028059;-63
2023/07/01 08:35:30;;;;;;;5.00;3.00;;;;;;;23.83;48.00;98580.68;79652;1292;3013992;-65
2023/07/01 08:37:57;;;;;;;3.90;2.40;;;;;;;23.86;47.87;98577.04;79788;1292;3011736;-66
2023/07/01 08:40:25;;;;;;;3.30;3.00;;;;;;;23.79;48.61;98581.08;78589;1295;3053480;-64
2023/07/01 08:42:59;;;;;;;4.00;2.70;;;;;;;23.75;48.85;98588.95;79771;1295;3013571;-63
2023/07/01 08:45:26;;;;;;;3.40;2.40;;;;;;;23.87;48.97;98585.87;78389;1291;3050689;-62
2023/07/01 08:47:53;;;;;;;4.30;3.00;;;;;;;24.05;48.69;98588.21;79812;1292;3013704;-64
2023/07/01 08:50:19;;;;;;;4.60;3.00;;;;;;;24.22;48.65;98585.41;79819;1295;3011692;-63
2023/07/01 08:52:53;;;;;;;6.10;3.40;;;;;;;24.29;48.66;98581.29;78429;1295;3028440;-64
2023/07/01 08:55:19;;;;;;;8.30;3.20;;;;;;;24.40;48.10;98577.42;79728;1295;3013070;-65
2023/07/01 08:57:47;;;;;;;3.10;2.80;;;;;;;24.57;47.74;98576.96;78522;1295;3052147;-61
2023/07/01 09:00:14;;;;;;;3.50;2.70;;;;;;;24.79;47.38;98572.20;79579;1295;3013115;-62
2023/07/01 09:02:42;;;;;;;6.20;2.80;;;;;;;24.73;46.94;98584.33;79659;1292;3011854;-62
2023/07/01 09:05:10;;;;;;;5.30;2.40;;;;;;;24.70;46.32;98580.51;78370;1298;3048839;-62
2023/07/01 09:07:36;;;;;;;6.40;2.90;;;;;;;24.63;45.79;98579.49;79828;1294;3019445;-64
2023/07/01 09:10:03;;;;;;;4.90;2.90;;;;;;;24.68;45.83;98575.67;79691;1295;3011838;-65
2023/07/01 09:12:31;;;;;;;4.90;3.30;;;;;;;24.93;45.35;98574.82;78494;1295;3027869;-64
2023/07/01 09:15:04;;;;;;;5.80;3.40;;;;;;;25.08;45.47;98585.02;79685;1295;3019111;-65
2023/07/01 09:17:34;;;;;;;3.80;2.90;;;;;;;25.25;45.79;98581.41;78477;1295;3057649;-64
2023/07/01 09:20:04;;;;;;;3.90;3.00;;;;;;;25.36;45.63;98584.79;79768;1291;3011653;-64
2023/07/01 09:22:33;;;;;;;6.90;3.60;;;;;;;25.48;46.29;98583.69;78597;1292;3052742;-66
2023/07/01 09:25:00;;;;;;;4.50;3.50;;;;;;;25.62;46.85;98581.29;79799;1295;3013061;-63
2023/07/01 09:27:42;;;;;;;6.80;3.80;;;;;;;25.62;46.67;98582.69;79786;1295;3012044;-66
2023/07/01 09:30:28;;;;;;;4.60;2.80;;;;;;;25.36;46.80;98595.91;78551;1295;3069628;-65
2023/07/01 09:33:10;;;;;;;6.10;3.20;;;;;;;25.25;46.79;98590.23;78514;1295;3052033;-63
2023/07/01 09:35:42;;;;;;;7.90;3.00;;;;;;;25.40;46.01;98586.39;78415;1304;3057103;-62
2023/07/01 09:38:09;;;;;;;7.30;2.80;;;;;;;25.71;45.35;98585.72;79701;1295;3013170;-64
2023/07/01 09:40:37;;;;;;;6.50;2.80;;;;;;;25.66;45.03;98596.79;78597;1298;3026429;-65
2023/07/01 09:43:04;;;;;;;7.50;4.60;;;;;;;25.52;44.46;98595.00;79768;1292;3013615;-63
2023/07/01 09:45:31;;;;;;;6.20;4.70;;;;;;;25.43;45.04;98590.86;79821;1295;3011365;-64
2023/07/01 09:47:59;;;;;;;6.40;4.50;;;;;;;25.58;45.65;98597.88;78482;1293;3029461;-65
2023/07/01 09:50:29;;;;;;;5.00;3.30;;;;;;;25.51;46.36;98606.09;79727;1292;3013005;-65
2023/07/01 09:52:58;;;;;;;8.80;3.30;;;;;;;25.56;46.27;98587.64;79156;1295;3013228;-63
2023/07/01 09:55:24;;;;;;;6.00;3.10;;;;;;;25.70;46.46;98588.59;79833;1292;3012882;-64
2023/07/01 09:57:52;;;;;;;5.00;3.40;;;;;;;25.93;45.91;98588.82;79721;1292;3012763;-66
2023/07/01 10:00:20;;;;;;;5.10;3.20;;;;;;;26.08;45.81;98581.31;78576;1295;3052559;-63
2023/07/01 10:02:47;;;;;;;5.00;3.30;;;;;;;25.90;45.61;98590.86;77854;1294;3013474;-63
2023/07/01 10:05:14;;;;;;;5.90;3.30;;;;;;;25.79;45.37;98582.80;79835;1291;3011963;-65
2023/07/01 10:07:43;;;;;;;5.10;3.40;;;;;;;25.95;45.25;98584.41;78464;1295;3054899;-62
2023/07/01 10:10:17;;;;;;;6.70;3.70;;;;;;;25.75;45.71;98593.40;79668;1291;3012085;-63
2023/07/01 10:12:46;;;;;;;6.50;3.60;;;;;;;25.83;45.62;98584.68;78436;1295;3054617;-62
2023/07/01 10:15:13;;;;;;;4.70;3.20;;;;;;;25.90;44.29;98583.70;79538;1298;3013039;-62
2023/07/01 10:17:48;;;;;;;5.30;3.40;;;;;;;26.05;44.79;98581.40;79755;1295;3012744;-65
2023/07/01 10:20:29;;;;;;;11.90;3.50;;;;;;;26.30;44.99;98577.80;78616;1293;3069094;-63
2023/07/01 10:23:01;;;;;;;5.60;3.40;;;;;;;26.58;44.52;98582.40;78637;1295;3052223;-63
2023/07/01 10:25:31;;;;;;;4.40;3.50;;;;;;;26.54;44.02;98587.33;79694;1293;3011462;-63
2023/07/01 10:28:06;;;;;;;10.00;3.90;;;;;;;26.49;43.91;98583.75;78499;1292;3050041;-64
2023/07/01 10:31:20;;;;;;;6.10;3.70;;;;;;;26.45;44.09;98584.44;79227;1292;3012052;-63
2023/07/01 10:33:49;;;;;;;5.90;3.60;;;;;;;26.62;44.11;98591.16;78391;1293;3053511;-63
2023/07/01 10:36:17;;;;;;;8.50;3.40;;;;;;;26.61;43.72;98596.88;79766;1292;3013375;-64
2023/07/01 10:38:46;;;;;;;4.50;3.40;;;;;;;26.56;43.67;98591.48;79189;1292;3011765;-64
2023/07/01 10:41:13;;;;;;;3.50;3.10;;;;;;;26.85;42.99;98591.91;79748;1295;3013377;-63
2023/07/01 10:43:40;;;;;;;6.60;3.40;;;;;;;26.80;42.10;98596.48;79824;1298;3011755;-65
2023/07/01 10:46:23;;;;;;;6.80;3.40;;;;;;;26.58;42.39;98592.68;78529;1295;3027576;-63
2023/07/01 10:49:03;;;;;;;4.30;2.90;;;;;;;26.35;42.16;98594.83;78647;1295;3050560;-63
2023/07/01 10:51:43;;;;;;;7.70;3.50;;;;;;;26.48;42.12;98587.93;78544;1295;3054160;-63
2023/07/01 10:54:11;;;;;;;7.40;2.90;;;;;;;26.33;41.50;98587.80;78290;1295;3051281;-65
2023/07/01 10:56:40;;;;;;;6.40;2.90;;;;;;;26.51;41.82;98585.05;79741;1296;3012881;-64
2023/07/01 10:59:23;;;;;;;5.50;3.10;;;;;;;26.71;41.75;98582.44;79810;1295;3011795;-64
2023/07/01 11:02:01;;;;;;;5.40;3.00;;;;;;;27.16;41.37;98583.59;78598;1295;3052541;-65
2023/07/01 11:04:54;;;;;;;3.90;2.40;;;;;;;27.24;39.85;98587.58;78643;1295;3056624;-64
2023/07/01 11:07:26;;;;;;;4.90;3.10;;;;;;;27.15;37.98;98585.31;78496;1295;3049918;-65
2023/07/01 11:09:56;;;;;;;6.60;3.00;;;;;;;26.92;38.44;98585.68;79820;1295;3011615;-66
2023/07/01 11:12:24;;;;;;;3.30;3.00;;;;;;;26.83;38.94;98586.88;78657;1295;3049857;-65
2023/07/01 11:14:51;;;;;;;5.90;2.80;;;;;;;26.80;39.12;98589.67;79814;1295;3013404;-64
2023/07/01 11:17:19;;;;;;;3.00;2.60;;;;;;;27.11;38.95;98587.00;79654;1295;3011653;-65
2023/07/01 11:19:54;;;;;;;4.40;2.70;;;;;;;27.30;38.32;98579.59;78401;1295;3051673;-63